Terminal Aerodrome Forecast
Issued by NWS Charleston, SC

Home | Current Version | Previous Version | Text Only | Print | Product List | Glossary On
Versions: 1 2 3 4 5 6 7 8 9 10 11 12 13 14 15 16 17 18 19 20 21 22 23 24 25 26 27 28 29 30
000
FTUS42 KCHS 241700
TAFSAV
TAF
KSAV 241728Z 2418/2518 21013G20KT P6SM SCT015 BKN035
      TEMPO 2418/2421 4SM SHRA BR BKN025
     FM242200 19006KT P6SM VCSH SCT015 BKN035
     FM250600 VRB02KT 6SM BR SCT005 OVC015
     FM250900 33003KT 5SM -RA BR SCT005 OVC008
     FM251300 33009KT 4SM RA BR SCT005 OVC015=

USA.gov is the U.S. government's official web portal to all federal, state and local government web resources and services.